Time;durP1;ratioP1;P1;durP2;ratioP2;P2;SDS_P1;SDS_P2;PMS_P1;PMS_P2;Temp;Humidity;BMP_temperature;BMP_pressure;BME280_temperature;BME280_humidity;BME280_pressure;Samples;Min_cycle;Max_cycle;Signal;HPM_P1;HPM_P2
2022/10/19 00:01:25;;;;;;;5.45;2.85;;;23.70;99.90;;;;;;5075623;28;20621;-90
2022/10/19 00:03:59;;;;;;;7.50;2.97;;;23.80;99.90;;;;;;5063032;28;20315;-92
2022/10/19 00:06:33;;;;;;;3.05;2.33;;;23.90;99.90;;;;;;5067747;28;20215;-93
2022/10/19 00:09:05;;;;;;;4.40;2.65;;;23.90;99.90;;;;;;5076098;28;20210;-92
2022/10/19 00:11:42;;;;;;;4.35;2.35;;;24.00;99.90;;;;;;5079994;28;20251;-91
2022/10/19 00:14:16;;;;;;;5.68;2.75;;;24.10;99.90;;;;;;5081973;28;20236;-91
2022/10/19 00:16:50;;;;;;;4.72;3.00;;;24.20;99.90;;;;;;5060216;28;20254;-91
2022/10/19 00:19:26;;;;;;;4.65;2.72;;;24.30;99.90;;;;;;5068832;28;20231;-93
2022/10/19 00:21:57;;;;;;;4.63;3.08;;;24.40;99.90;;;;;;5073494;28;20211;-91
2022/10/19 00:24:29;;;;;;;8.07;3.03;;;24.50;99.90;;;;;;5064654;28;20218;-93
2022/10/19 00:27:05;;;;;;;8.35;3.50;;;24.70;99.90;;;;;;5074429;28;20283;-92
2022/10/19 00:29:37;;;;;;;3.63;2.67;;;24.70;99.90;;;;;;5074109;28;20200;-91
2022/10/19 00:32:10;;;;;;;5.28;2.75;;;24.80;99.90;;;;;;5075221;28;20567;-92
2022/10/19 00:34:41;;;;;;;5.05;2.70;;;24.90;99.90;;;;;;5074372;28;20247;-92
2022/10/19 00:37:13;;;;;;;4.38;2.95;;;24.80;99.90;;;;;;5086024;28;20200;-94
2022/10/19 00:39:46;;;;;;;5.57;2.80;;;24.90;99.90;;;;;;5071772;28;20652;-92
2022/10/19 00:42:20;;;;;;;4.88;2.70;;;24.90;99.90;;;;;;5054557;28;20611;-92
2022/10/19 00:45:11;;;;;;;3.72;2.22;;;25.00;99.90;;;;;;5070239;28;20633;-92
2022/10/19 00:47:45;;;;;;;4.32;2.47;;;25.20;99.90;;;;;;5072897;28;20235;-92
2022/10/19 00:50:19;;;;;;;4.38;2.30;;;25.20;99.90;;;;;;5057687;28;20644;-92
2022/10/19 00:52:50;;;;;;;4.03;2.28;;;25.30;99.90;;;;;;5053088;28;20221;-92
2022/10/19 00:55:23;;;;;;;5.85;2.10;;;25.40;99.90;;;;;;5075545;28;20200;-91
2022/10/19 00:57:58;;;;;;;2.70;2.13;;;25.50;99.90;;;;;;5064699;28;20582;-92
2022/10/19 01:00:30;;;;;;;7.47;2.50;;;25.60;99.90;;;;;;5054517;28;20229;-91
2022/10/19 01:03:03;;;;;;;4.18;2.50;;;25.70;99.90;;;;;;5057434;28;20199;-91
2022/10/19 01:05:37;;;;;;;3.90;2.30;;;25.80;99.90;;;;;;5046380;28;20313;-92
2022/10/19 01:08:11;;;;;;;2.97;2.00;;;25.90;99.90;;;;;;5040123;28;20299;-91
2022/10/19 01:10:52;;;;;;;4.47;2.03;;;26.00;99.90;;;;;;5054463;28;20200;-92
2022/10/19 01:13:41;;;;;;;4.57;1.98;;;26.20;99.90;;;;;;5073327;28;20778;-91
2022/10/19 01:16:23;;;;;;;5.93;1.83;;;26.30;99.90;;;;;;5045338;28;20220;-94
2022/10/19 01:19:01;;;;;;;2.22;1.40;;;26.40;99.90;;;;;;5067820;28;20207;-92
2022/10/19 01:21:42;;;;;;;5.38;2.50;;;26.50;99.90;;;;;;5055781;28;20659;-90
2022/10/19 01:24:33;;;;;;;8.63;3.25;;;26.50;99.90;;;;;;5068819;28;20203;-92
2022/10/19 01:27:36;;;;;;;6.15;2.88;;;26.50;99.90;;;;;;5061049;28;20207;-90
2022/10/19 01:30:18;;;;;;;8.52;3.72;;;26.70;99.90;;;;;;5034902;28;20201;-92
2022/10/19 01:33:02;;;;;;;7.18;3.05;;;26.80;99.90;;;;;;5051459;28;20594;-90
2022/10/19 01:35:38;;;;;;;9.55;3.50;;;26.70;99.90;;;;;;5053549;28;20303;-91
2022/10/19 01:38:26;;;;;;;10.48;3.45;;;26.60;99.90;;;;;;5052912;28;20200;-91
2022/10/19 01:41:01;;;;;;;9.18;3.10;;;26.30;99.90;;;;;;5049426;28;20333;-91
2022/10/19 01:43:42;;;;;;;5.35;2.97;;;26.10;99.90;;;;;;5051398;28;20581;-90
2022/10/19 01:46:21;;;;;;;6.80;3.08;;;26.00;99.90;;;;;;5069040;28;20711;-91
2022/10/19 01:48:58;;;;;;;7.38;3.03;;;25.90;99.90;;;;;;5092939;28;20235;-91
2022/10/19 01:51:32;;;;;;;6.97;3.50;;;25.70;99.90;;;;;;5058414;28;20199;-94
2022/10/19 01:54:07;;;;;;;9.38;3.10;;;25.40;99.90;;;;;;5051828;28;20231;-91
2022/10/19 01:56:44;;;;;;;9.20;3.33;;;25.50;99.90;;;;;;5054499;28;20207;-91
2022/10/19 01:59:18;;;;;;;8.50;3.28;;;25.50;99.90;;;;;;5061691;28;20223;-91
2022/10/19 02:01:55;;;;;;;6.35;3.00;;;25.60;99.90;;;;;;5059650;28;20254;-91
2022/10/19 02:04:27;;;;;;;6.65;3.28;;;25.70;99.90;;;;;;5079730;28;20755;-92
2022/10/19 02:06:59;;;;;;;6.90;2.95;;;25.70;99.90;;;;;;5069402;28;20211;-92
2022/10/19 02:09:30;;;;;;;9.50;3.33;;;25.70;99.90;;;;;;5049519;28;20663;-91
2022/10/19 02:12:05;;;;;;;9.10;3.00;;;25.60;99.90;;;;;;5066712;28;20210;-92
2022/10/19 02:14:40;;;;;;;9.80;3.33;;;25.40;99.90;;;;;;5040011;28;20247;-91
2022/10/19 02:17:17;;;;;;;9.18;3.38;;;25.20;99.90;;;;;;5057309;28;20199;-92
2022/10/19 02:19:51;;;;;;;9.32;2.92;;;25.20;99.90;;;;;;5038064;28;20232;-93
2022/10/19 02:22:23;;;;;;;13.60;2.78;;;25.40;99.90;;;;;;5047299;28;20237;-92
2022/10/19 02:24:55;;;;;;;6.88;2.40;;;25.50;99.90;;;;;;5072982;28;20245;-92
2022/10/19 02:27:27;;;;;;;7.60;2.70;;;25.50;99.90;;;;;;5077023;28;20212;-91
2022/10/19 02:30:00;;;;;;;8.25;2.40;;;25.40;99.90;;;;;;5077490;28;20216;-90
2022/10/19 02:32:35;;;;;;;6.13;2.10;;;25.40;99.90;;;;;;5058151;28;20204;-93
2022/10/19 02:35:08;;;;;;;8.27;2.13;;;25.40;99.90;;;;;;5069676;28;20207;-92
2022/10/19 02:37:40;;;;;;;5.20;1.90;;;25.50;99.90;;;;;;5051631;28;20200;-91
2022/10/19 02:40:12;;;;;;;5.75;1.80;;;25.50;99.90;;;;;;5073190;28;20192;-91
2022/10/19 02:42:50;;;;;;;3.80;1.80;;;25.30;99.90;;;;;;5074665;28;20234;-91
2022/10/19 02:45:29;;;;;;;5.10;1.92;;;25.20;99.90;;;;;;5048935;28;20288;-90
2022/10/19 02:48:07;;;;;;;4.47;1.63;;;25.30;99.90;;;;;;5062945;28;20254;-92
2022/10/19 02:50:40;;;;;;;5.78;1.60;;;25.40;99.90;;;;;;5075433;28;20230;-91
2022/10/19 02:53:14;;;;;;;3.53;1.60;;;25.40;99.90;;;;;;5082625;28;20693;-90
2022/10/19 02:55:47;;;;;;;4.60;1.75;;;25.30;99.90;;;;;;5087315;28;20248;-92
2022/10/19 02:58:18;;;;;;;8.98;1.85;;;25.50;99.90;;;;;;5079328;28;20271;-91
2022/10/19 03:00:50;;;;;;;6.85;1.50;;;25.60;99.90;;;;;;5060316;28;20226;-91
2022/10/19 03:03:26;;;;;;;3.95;1.80;;;25.70;99.90;;;;;;5075399;28;20656;-93
2022/10/19 03:06:00;;;;;;;4.10;1.65;;;25.80;99.90;;;;;;5075854;28;20195;-92
2022/10/19 03:08:31;;;;;;;3.92;1.60;;;26.00;99.90;;;;;;5069637;28;20204;-92
2022/10/19 03:11:05;;;;;;;4.63;1.60;;;26.20;99.90;;;;;;5073727;28;20206;-92
2022/10/19 03:13:35;;;;;;;3.08;1.50;;;26.40;99.90;;;;;;5077379;28;20287;-91
2022/10/19 03:16:12;;;;;;;3.03;1.40;;;26.50;99.90;;;;;;5075406;28;20279;-91
2022/10/19 03:18:48;;;;;;;4.97;1.67;;;26.80;99.90;;;;;;5080361;28;20201;-91
2022/10/19 03:21:22;;;;;;;6.90;1.80;;;26.70;99.90;;;;;;5076228;28;20265;-92
2022/10/19 03:23:57;;;;;;;4.72;2.08;;;26.80;99.90;;;;;;5062174;28;20200;-92
2022/10/19 03:26:28;;;;;;;7.00;1.70;;;26.70;99.90;;;;;;5045026;28;20204;-91
2022/10/19 03:29:00;;;;;;;9.20;1.83;;;26.60;99.90;;;;;;5074000;28;20548;-91
2022/10/19 03:31:31;;;;;;;5.85;1.50;;;26.60;99.90;;;;;;5088775;28;20202;-91
2022/10/19 03:34:05;;;;;;;3.25;1.10;;;26.50;99.90;;;;;;5069908;28;20214;-91
2022/10/19 03:36:39;;;;;;;5.05;1.40;;;26.40;99.90;;;;;;5066828;28;20208;-91
2022/10/19 03:39:14;;;;;;;3.45;1.50;;;26.40;99.90;;;;;;5073029;28;20330;-92
2022/10/19 03:41:47;;;;;;;4.78;1.33;;;26.30;99.90;;;;;;5076541;28;20707;-92
2022/10/19 03:44:20;;;;;;;4.65;1.50;;;26.40;99.90;;;;;;5070508;28;20564;-92
2022/10/19 03:46:53;;;;;;;4.60;1.30;;;26.40;99.90;;;;;;5067125;28;20261;-92
2022/10/19 03:49:30;;;;;;;2.03;1.08;;;26.40;99.90;;;;;;5055375;28;20288;-91
2022/10/19 03:52:02;;;;;;;4.13;1.30;;;26.40;99.90;;;;;;5066951;28;20748;-92
2022/10/19 03:54:35;;;;;;;2.88;1.30;;;26.50;99.90;;;;;;5061016;28;20218;-90
2022/10/19 03:57:06;;;;;;;2.58;1.25;;;26.40;99.90;;;;;;5055967;28;20208;-92
2022/10/19 03:59:37;;;;;;;4.68;1.40;;;26.50;99.90;;;;;;5076343;28;20210;-91
2022/10/19 04:02:08;;;;;;;3.55;1.20;;;26.50;99.90;;;;;;5088389;28;20212;-91
2022/10/19 04:04:42;;;;;;;3.00;1.13;;;26.60;99.90;;;;;;5075120;28;20233;-90
2022/10/19 04:07:15;;;;;;;4.72;1.40;;;26.40;99.90;;;;;;5073034;28;20203;-92
2022/10/19 04:09:47;;;;;;;4.28;1.33;;;26.50;99.90;;;;;;5055896;28;20665;-92
2022/10/19 04:12:19;;;;;;;4.15;1.08;;;26.60;99.90;;;;;;5058693;28;20243;-92
2022/10/19 04:14:51;;;;;;;3.03;1.15;;;26.50;99.90;;;;;;5059015;28;20277;-91
2022/10/19 04:17:25;;;;;;;2.75;1.02;;;26.40;99.90;;;;;;5074976;28;20200;-92
2022/10/19 04:20:00;;;;;;;4.63;1.00;;;26.30;99.90;;;;;;5055704;28;20206;-91
2022/10/19 04:22:32;;;;;;;3.40;1.13;;;26.20;99.90;;;;;;5049381;28;20632;-92
2022/10/19 04:25:04;;;;;;;2.95;1.10;;;26.30;99.90;;;;;;5055837;28;20584;-91
2022/10/19 04:27:35;;;;;;;3.33;1.10;;;26.20;99.90;;;;;;5060430;28;20204;-91
2022/10/19 04:30:09;;;;;;;3.72;1.20;;;26.20;99.90;;;;;;5075125;28;20200;-91
2022/10/19 04:32:41;;;;;;;4.43;1.10;;;26.20;99.90;;;;;;5072862;28;20230;-91
2022/10/19 04:35:15;;;;;;;2.42;0.90;;;26.00;99.90;;;;;;5077859;28;20200;-91
2022/10/19 04:37:47;;;;;;;6.15;1.08;;;25.90;99.90;;;;;;5073896;28;20678;-91
2022/10/19 04:40:20;;;;;;;5.95;1.35;;;26.00;99.90;;;;;;5058824;28;20326;-91
2022/10/19 04:42:52;;;;;;;4.47;1.40;;;25.90;99.90;;;;;;5065878;28;20211;-90
2022/10/19 04:45:25;;;;;;;4.93;1.00;;;25.90;99.90;;;;;;5072964;28;20200;-91
2022/10/19 04:47:58;;;;;;;6.13;1.85;;;25.90;99.90;;;;;;5075022;28;20235;-90
2022/10/19 04:50:32;;;;;;;3.22;1.40;;;25.70;99.90;;;;;;5076096;28;20567;-90
2022/10/19 04:53:05;;;;;;;7.78;2.00;;;25.70;99.90;;;;;;5078435;28;20203;-90
2022/10/19 04:55:37;;;;;;;5.18;1.73;;;25.70;99.90;;;;;;5083010;28;20268;-90
2022/10/19 04:58:09;;;;;;;4.97;1.70;;;25.50;99.90;;;;;;5056557;28;20283;-92
2022/10/19 05:00:41;;;;;;;8.55;2.60;;;25.50;99.90;;;;;;5075134;28;20226;-91
2022/10/19 05:03:13;;;;;;;9.00;3.10;;;25.40;99.90;;;;;;5077460;28;20220;-89
2022/10/19 05:05:47;;;;;;;7.03;2.13;;;25.40;99.90;;;;;;5075272;28;20563;-91
2022/10/19 05:08:20;;;;;;;5.53;2.83;;;25.20;99.90;;;;;;5083292;28;20211;-91
2022/10/19 05:10:52;;;;;;;5.22;2.55;;;25.20;99.90;;;;;;5095061;28;20203;-91
2022/10/19 05:13:24;;;;;;;5.65;1.73;;;25.20;99.90;;;;;;5075228;28;20200;-92
2022/10/19 05:16:05;;;;;;;6.13;1.90;;;25.00;99.90;;;;;;5073798;28;20211;-91
2022/10/19 05:18:36;;;;;;;6.25;2.03;;;25.00;99.90;;;;;;5073687;28;20200;-90
2022/10/19 05:21:12;;;;;;;5.40;1.75;;;25.10;99.90;;;;;;5066651;28;20661;-91
2022/10/19 05:23:45;;;;;;;7.90;3.08;;;25.20;99.90;;;;;;5074357;28;20257;-91
2022/10/19 05:26:19;;;;;;;3.92;2.60;;;25.20;99.90;;;;;;5075324;28;20271;-90
2022/10/19 05:28:55;;;;;;;5.78;2.40;;;25.50;99.90;;;;;;5062461;28;20204;-90
2022/10/19 05:31:28;;;;;;;5.28;2.08;;;25.70;99.90;;;;;;5074969;28;20571;-89
2022/10/19 05:33:59;;;;;;;3.53;1.63;;;25.70;99.90;;;;;;5064957;28;20267;-90
2022/10/19 05:36:35;;;;;;;4.72;1.70;;;25.60;99.90;;;;;;5072265;28;20287;-91
2022/10/19 05:39:08;;;;;;;4.22;1.38;;;25.40;99.90;;;;;;5073706;28;20211;-90
2022/10/19 05:41:39;;;;;;;5.47;1.50;;;25.30;99.90;;;;;;5075264;28;20310;-90
2022/10/19 05:44:13;;;;;;;7.10;1.60;;;25.30;99.90;;;;;;5073517;28;20262;-89
2022/10/19 05:46:45;;;;;;;4.22;1.40;;;25.10;99.90;;;;;;5073233;28;20231;-90
2022/10/19 05:49:19;;;;;;;7.03;1.58;;;24.90;99.90;;;;;;5074821;28;20203;-90
2022/10/19 05:51:54;;;;;;;5.45;1.52;;;24.80;99.90;;;;;;5071625;28;20252;-89
2022/10/19 05:54:26;;;;;;;3.67;1.23;;;24.60;99.90;;;;;;5054000;28;20200;-90
2022/10/19 05:56:58;;;;;;;5.10;1.48;;;24.50;99.90;;;;;;5054312;28;20230;-90
2022/10/19 05:59:29;;;;;;;6.03;1.63;;;24.40;99.90;;;;;;5073868;28;20211;-90
2022/10/19 06:02:00;;;;;;;5.20;1.65;;;24.30;99.90;;;;;;5072970;28;20222;-91
2022/10/19 06:04:33;;;;;;;6.22;1.35;;;24.30;99.90;;;;;;5072746;28;20214;-90
2022/10/19 06:07:06;;;;;;;5.18;1.63;;;24.20;99.90;;;;;;5073301;28;20675;-91
2022/10/19 06:09:38;;;;;;;6.22;1.70;;;24.20;99.90;;;;;;5072789;28;20267;-91
2022/10/19 06:12:09;;;;;;;7.78;1.90;;;24.10;99.90;;;;;;5065784;28;20245;-90
2022/10/19 06:14:41;;;;;;;4.93;1.58;;;24.00;99.90;;;;;;5073092;28;20269;-91
2022/10/19 06:17:15;;;;;;;6.28;1.40;;;24.00;99.90;;;;;;5075533;28;20227;-92
2022/10/19 06:19:47;;;;;;;9.80;2.47;;;24.00;99.90;;;;;;5069893;28;20299;-91
2022/10/19 06:22:20;;;;;;;5.68;1.45;;;24.00;99.90;;;;;;5079010;28;20242;-90
2022/10/19 06:24:53;;;;;;;6.75;1.88;;;24.00;99.90;;;;;;5078313;28;20204;-91
2022/10/19 06:27:25;;;;;;;5.90;1.50;;;23.90;99.90;;;;;;5090632;28;20218;-91
2022/10/19 06:29:57;;;;;;;7.25;1.88;;;23.90;99.90;;;;;;5079846;28;20208;-92
2022/10/19 06:32:29;;;;;;;5.40;1.92;;;23.90;99.90;;;;;;5068232;28;20690;-91
2022/10/19 06:35:00;;;;;;;6.43;1.95;;;23.90;99.90;;;;;;5090629;28;20552;-91
2022/10/19 06:37:35;;;;;;;6.72;2.00;;;23.90;99.90;;;;;;5063628;28;20653;-92
2022/10/19 06:40:06;;;;;;;7.75;1.92;;;23.90;99.90;;;;;;5064048;28;20664;-92
2022/10/19 06:42:39;;;;;;;6.30;1.60;;;23.90;99.90;;;;;;5063954;28;20222;-91
2022/10/19 06:45:12;;;;;;;4.35;1.30;;;24.00;99.90;;;;;;5062678;28;20196;-91
2022/10/19 06:47:43;;;;;;;5.13;1.50;;;24.10;99.90;;;;;;5068096;28;20224;-91
2022/10/19 06:50:16;;;;;;;5.15;1.70;;;24.00;99.90;;;;;;5066114;28;20200;-90
2022/10/19 06:52:49;;;;;;;5.78;1.60;;;23.90;99.90;;;;;;5078779;28;20290;-90
2022/10/19 06:55:21;;;;;;;7.88;1.60;;;23.80;99.90;;;;;;5082137;28;20225;-91
2022/10/19 06:57:53;;;;;;;6.32;1.58;;;23.70;99.90;;;;;;5071848;28;20219;-91
2022/10/19 07:00:25;;;;;;;5.88;1.80;;;23.60;99.90;;;;;;5063460;28;20580;-90
2022/10/19 07:02:58;;;;;;;5.57;1.60;;;23.60;99.90;;;;;;5067551;28;20223;-90
2022/10/19 07:05:30;;;;;;;5.63;1.65;;;23.50;99.90;;;;;;5078977;28;20238;-92
2022/10/19 07:08:04;;;;;;;4.07;1.40;;;23.50;99.90;;;;;;5085910;28;20591;-91
2022/10/19 07:10:35;;;;;;;5.05;1.50;;;23.50;99.90;;;;;;5087411;28;20279;-91
2022/10/19 07:13:06;;;;;;;9.68;2.00;;;23.40;99.90;;;;;;5077669;28;20250;-90
2022/10/19 07:15:39;;;;;;;9.25;1.88;;;23.40;99.90;;;;;;5058876;28;20232;-91
2022/10/19 07:18:10;;;;;;;6.30;1.52;;;23.30;99.90;;;;;;5077081;28;20541;-90
2022/10/19 07:20:43;;;;;;;6.40;1.80;;;23.30;99.90;;;;;;5072368;28;20698;-92
2022/10/19 07:23:17;;;;;;;5.10;1.50;;;23.20;99.90;;;;;;5068866;28;20278;-91
2022/10/19 07:25:48;;;;;;;6.22;1.63;;;23.20;99.90;;;;;;5075004;28;20195;-90
2022/10/19 07:28:21;;;;;;;5.95;1.70;;;23.10;99.90;;;;;;5058629;28;20200;-91
2022/10/19 07:30:52;;;;;;;7.75;1.70;;;23.10;99.90;;;;;;5065005;28;20204;-91
2022/10/19 07:33:26;;;;;;;5.97;1.50;;;23.00;99.90;;;;;;5080109;28;20686;-91
2022/10/19 07:36:04;;;;;;;4.82;1.67;;;23.00;99.90;;;;;;5077879;28;20638;-91
2022/10/19 07:38:40;;;;;;;6.60;1.55;;;22.90;99.90;;;;;;5077263;28;20207;-91
2022/10/19 07:41:16;;;;;;;4.97;1.58;;;22.90;99.90;;;;;;5078190;28;20208;-91
2022/10/19 07:43:48;;;;;;;6.88;2.17;;;22.90;99.90;;;;;;5076092;28;20233;-91
2022/10/19 07:46:21;;;;;;;6.68;2.15;;;22.90;99.90;;;;;;5076045;28;20265;-92
2022/10/19 07:48:53;;;;;;;5.63;2.03;;;22.90;99.90;;;;;;5075334;28;20255;-92
2022/10/19 07:51:27;;;;;;;4.45;1.52;;;22.80;99.90;;;;;;5071664;28;20328;-91
2022/10/19 07:54:02;;;;;;;5.00;1.73;;;22.80;99.90;;;;;;5056597;28;20228;-91
2022/10/19 07:56:33;;;;;;;5.85;1.95;;;22.70;99.90;;;;;;5055419;28;20216;-91
2022/10/19 07:59:05;;;;;;;9.18;2.10;;;22.70;99.90;;;;;;5092135;28;20191;-92
2022/10/19 08:01:43;;;;;;;6.00;1.95;;;22.70;99.90;;;;;;5115818;28;20214;-91
2022/10/19 08:04:15;;;;;;;8.27;2.25;;;22.60;99.90;;;;;;5072476;28;20700;-91
2022/10/19 08:06:50;;;;;;;7.97;2.45;;;22.50;99.90;;;;;;5073192;28;20210;-91
2022/10/19 08:09:23;;;;;;;6.25;2.00;;;22.50;99.90;;;;;;5063440;28;20212;-93
2022/10/19 08:11:58;;;;;;;9.27;2.17;;;22.50;99.90;;;;;;5057085;28;20227;-95
2022/10/19 08:14:31;;;;;;;3.72;1.70;;;22.40;99.90;;;;;;5060936;28;20248;-91
2022/10/19 08:17:03;;;;;;;8.73;1.80;;;22.40;99.90;;;;;;5081346;28;20632;-90
2022/10/19 08:19:40;;;;;;;5.45;1.63;;;22.40;99.90;;;;;;5075883;28;20204;-92
2022/10/19 08:22:12;;;;;;;4.03;1.70;;;22.30;99.90;;;;;;5075245;28;20203;-92
2022/10/19 08:24:46;;;;;;;5.22;1.95;;;22.30;99.90;;;;;;5075200;28;20200;-91
2022/10/19 08:27:19;;;;;;;7.53;2.17;;;22.20;99.90;;;;;;5055383;28;20218;-92
2022/10/19 08:29:50;;;;;;;8.10;2.92;;;22.20;99.90;;;;;;5066386;28;20212;-91
2022/10/19 08:32:22;;;;;;;8.82;3.35;;;22.20;99.90;;;;;;5084026;28;20203;-91
2022/10/19 08:34:53;;;;;;;7.03;3.00;;;22.20;99.90;;;;;;5078386;28;20283;-91
2022/10/19 08:37:26;;;;;;;5.93;2.22;;;22.20;99.90;;;;;;5095669;28;20652;-90
2022/10/19 08:40:01;;;;;;;10.30;2.28;;;22.10;99.90;;;;;;5096400;28;20203;-93
2022/10/19 08:42:41;;;;;;;5.57;2.47;;;22.10;99.90;;;;;;5084976;28;20580;-95
2022/10/19 08:45:43;;;;;;;5.85;2.10;;;22.00;99.90;;;;;;5069034;28;20683;-93
2022/10/19 08:48:29;;;;;;;7.20;2.28;;;22.00;99.90;;;;;;5057315;28;20208;-93
2022/10/19 08:51:02;;;;;;;5.72;1.85;;;22.00;99.90;;;;;;5036059;28;20205;-95
2022/10/19 08:53:46;;;;;;;6.90;1.90;;;22.00;99.90;;;;;;5063401;28;20246;-94
2022/10/19 08:56:32;;;;;;;5.32;2.20;;;22.00;99.90;;;;;;5076453;28;20234;-94
2022/10/19 08:59:14;;;;;;;5.95;2.00;;;21.90;99.90;;;;;;5074356;28;20245;-93
2022/10/19 09:01:53;;;;;;;7.82;2.70;;;21.90;99.90;;;;;;5057202;28;20205;-93
2022/10/19 09:04:29;;;;;;;7.43;2.25;;;21.90;99.90;;;;;;5056231;28;20748;-95
2022/10/19 09:07:22;;;;;;;9.48;2.70;;;21.90;99.90;;;;;;5075325;28;20223;-94
2022/10/19 09:09:57;;;;;;;6.50;2.70;;;21.80;99.90;;;;;;5074225;28;20684;-95
2022/10/19 09:12:40;;;;;;;8.32;2.65;;;21.80;99.90;;;;;;5075603;28;20210;-93
2022/10/19 09:15:17;;;;;;;4.90;2.05;;;21.80;99.90;;;;;;5075978;28;20314;-94
2022/10/19 09:17:50;;;;;;;7.03;2.05;;;21.80;99.90;;;;;;5043358;28;20213;-94
2022/10/19 09:20:23;;;;;;;5.57;1.98;;;21.80;99.90;;;;;;5036194;28;20628;-93
2022/10/19 09:23:03;;;;;;;7.45;1.88;;;21.80;99.90;;;;;;5050258;28;20270;-94
2022/10/19 09:25:42;;;;;;;6.90;1.55;;;21.80;99.90;;;;;;5037396;28;20219;-94
2022/10/19 09:28:30;;;;;;;6.38;1.65;;;21.80;99.90;;;;;;5049357;28;20246;-95
2022/10/19 09:31:03;;;;;;;5.55;2.17;;;21.80;99.90;;;;;;5066946;28;20346;-95
2022/10/19 09:33:37;;;;;;;5.63;2.08;;;21.80;99.90;;;;;;5071892;28;20207;-94
2022/10/19 09:36:11;;;;;;;4.03;1.55;;;21.80;99.90;;;;;;5065185;28;20234;-92
2022/10/19 09:38:48;;;;;;;4.93;1.90;;;21.70;99.90;;;;;;5061174;28;20287;-94
2022/10/19 09:41:23;;;;;;;6.05;1.70;;;21.70;99.90;;;;;;5056156;28;20269;-94
2022/10/19 09:44:11;;;;;;;8.38;1.80;;;21.70;99.90;;;;;;5055232;28;20784;-94
2022/10/19 09:46:52;;;;;;;5.70;1.73;;;21.80;99.90;;;;;;5063436;28;20230;-96
2022/10/19 09:49:41;;;;;;;5.97;1.65;;;21.70;99.90;;;;;;5073547;28;20216;-95
2022/10/19 09:52:32;;;;;;;5.70;2.13;;;21.70;99.90;;;;;;5075406;28;20214;-94
2022/10/19 09:55:06;;;;;;;8.05;1.88;;;21.70;99.90;;;;;;5075292;28;20215;-94
2022/10/19 09:57:45;;;;;;;8.55;1.90;;;21.70;99.90;;;;;;5069212;28;20214;-94
2022/10/19 10:00:27;;;;;;;7.82;2.10;;;21.60;99.90;;;;;;5063519;28;20204;-93
2022/10/19 10:02:58;;;;;;;6.35;1.77;;;21.60;99.90;;;;;;5077372;28;20215;-94
2022/10/19 10:05:36;;;;;;;6.50;1.80;;;21.60;99.90;;;;;;5066815;28;20597;-94
2022/10/19 10:08:15;;;;;;;6.15;2.00;;;21.60;99.90;;;;;;5070399;28;20208;-93
2022/10/19 10:10:49;;;;;;;5.32;2.00;;;21.70;99.90;;;;;;5075971;28;20215;-93
2022/10/19 10:13:23;;;;;;;5.25;2.10;;;21.60;99.90;;;;;;5075520;28;20208;-94
2022/10/19 10:16:01;;;;;;;12.13;3.75;;;21.70;99.90;;;;;;5094397;28;20591;-93
2022/10/19 10:18:34;;;;;;;6.40;2.40;;;21.70;99.90;;;;;;5094948;28;20205;-93
2022/10/19 10:21:12;;;;;;;6.45;2.20;;;21.70;99.90;;;;;;5077023;28;20199;-94
2022/10/19 10:23:45;;;;;;;5.82;2.08;;;21.70;99.90;;;;;;5071975;28;20227;-95
2022/10/19 10:26:23;;;;;;;7.88;1.90;;;21.70;99.90;;;;;;5063500;28;20271;-94
2022/10/19 10:28:54;;;;;;;5.90;1.85;;;21.60;99.90;;;;;;5078373;28;20290;-94
2022/10/19 10:31:33;;;;;;;6.68;1.73;;;21.60;99.90;;;;;;5079091;28;20204;-94
2022/10/19 10:34:05;;;;;;;8.98;2.00;;;21.60;99.90;;;;;;5078638;28;20539;-94
2022/10/19 10:36:38;;;;;;;5.90;1.63;;;21.60;99.90;;;;;;5078436;28;20226;-94
2022/10/19 10:39:14;;;;;;;8.35;2.00;;;21.60;99.90;;;;;;5077108;28;20291;-94
2022/10/19 10:41:47;;;;;;;5.78;1.70;;;21.60;99.90;;;;;;5077851;28;20652;-93
2022/10/19 10:44:23;;;;;;;7.53;1.90;;;21.60;99.90;;;;;;5078732;28;20226;-95
2022/10/19 10:47:00;;;;;;;6.93;1.83;;;21.60;99.90;;;;;;5079539;28;20246;-95
2022/10/19 10:49:35;;;;;;;5.82;1.50;;;21.60;99.90;;;;;;5099409;28;20556;-95
2022/10/19 10:52:10;;;;;;;6.72;1.38;;;21.60;99.90;;;;;;5099391;28;20585;-94
2022/10/19 10:54:42;;;;;;;10.98;2.28;;;21.50;99.90;;;;;;5062290;28;20191;-93
2022/10/19 10:57:18;;;;;;;7.38;1.77;;;21.50;99.90;;;;;;5079307;28;20239;-94
2022/10/19 10:59:58;;;;;;;7.38;1.63;;;21.50;99.90;;;;;;5068696;28;20204;-96
2022/10/19 11:02:39;;;;;;;8.50;2.00;;;21.50;99.90;;;;;;5058797;28;20226;-93
2022/10/19 11:05:16;;;;;;;6.70;1.63;;;21.50;99.90;;;;;;5073092;28;20227;-93
2022/10/19 11:07:50;;;;;;;6.25;2.08;;;21.40;99.90;;;;;;5097470;28;20264;-95
2022/10/19 11:10:28;;;;;;;7.07;2.17;;;21.40;99.90;;;;;;5085476;28;20207;-94
2022/10/19 11:13:07;;;;;;;6.35;1.85;;;21.40;99.90;;;;;;5078945;28;20200;-93
2022/10/19 11:15:46;;;;;;;6.10;2.05;;;21.40;99.90;;;;;;5077617;28;20258;-93
2022/10/19 11:18:26;;;;;;;6.45;1.80;;;21.40;99.90;;;;;;5074824;28;20259;-93
2022/10/19 11:21:08;;;;;;;4.85;1.80;;;21.40;99.90;;;;;;5068972;28;20277;-93
2022/10/19 11:23:52;;;;;;;10.30;1.98;;;21.40;99.90;;;;;;5079602;28;20683;-95
2022/10/19 11:26:38;;;;;;;7.80;1.60;;;21.40;99.90;;;;;;5072022;28;20218;-92
2022/10/19 11:29:26;;;;;;;5.38;1.63;;;21.40;99.90;;;;;;5088719;28;20289;-94
2022/10/19 11:31:58;;;;;;;9.10;2.05;;;21.30;99.90;;;;;;5067732;28;20204;-92
2022/10/19 11:34:56;;;;;;;10.23;1.77;;;21.40;99.90;;;;;;5057568;28;20623;-93
2022/10/19 11:37:31;;;;;;;6.82;1.63;;;21.40;99.90;;;;;;5056843;28;20197;-94
2022/10/19 11:40:15;;;;;;;5.43;1.75;;;21.40;99.90;;;;;;5073366;28;20210;-94
2022/10/19 11:43:05;;;;;;;5.80;1.70;;;21.40;99.90;;;;;;5076815;28;20195;-94
2022/10/19 11:45:51;;;;;;;7.32;2.00;;;21.40;99.90;;;;;;5056491;28;20200;-92
2022/10/19 11:48:38;;;;;;;8.60;1.80;;;21.40;99.90;;;;;;5058948;28;20208;-94
2022/10/19 11:51:17;;;;;;;9.43;1.85;;;21.40;99.90;;;;;;5065772;28;20292;-93
2022/10/19 11:53:58;;;;;;;7.78;1.40;;;21.40;99.90;;;;;;5086886;28;20199;-92
2022/10/19 11:56:35;;;;;;;5.97;1.70;;;21.40;99.90;;;;;;5097124;28;20301;-93
2022/10/19 12:02:30;;;;;;;3.47;1.40;;;21.40;99.90;;;;;;5088304;28;20682;-94
2022/10/19 12:05:05;;;;;;;6.28;1.60;;;21.40;99.90;;;;;;5111769;28;20782;-93
2022/10/19 12:07:54;;;;;;;6.47;1.65;;;21.30;99.90;;;;;;5080243;28;20287;-92
2022/10/19 12:10:33;;;;;;;7.63;1.60;;;21.30;99.90;;;;;;5071787;28;20199;-93
2022/10/19 12:13:06;;;;;;;4.35;1.40;;;21.30;99.90;;;;;;5076130;28;20657;-93
2022/10/19 12:15:42;;;;;;;7.38;1.63;;;21.30;99.90;;;;;;5076141;28;20231;-93
2022/10/19 12:18:20;;;;;;;7.32;1.70;;;21.20;99.90;;;;;;5076267;28;20712;-93
2022/10/19 12:20:55;;;;;;;4.85;1.70;;;21.20;99.90;;;;;;5074526;28;20671;-94
2022/10/19 12:23:34;;;;;;;7.72;1.83;;;21.20;99.90;;;;;;5062280;28;20200;-93
2022/10/19 12:26:09;;;;;;;7.38;1.58;;;21.20;99.90;;;;;;5075969;28;20264;-92
2022/10/19 12:28:42;;;;;;;5.90;1.55;;;21.20;99.90;;;;;;5086570;28;20209;-94
2022/10/19 12:31:15;;;;;;;6.78;1.70;;;21.10;99.90;;;;;;5072209;28;20205;-94
2022/10/19 12:33:52;;;;;;;6.22;1.90;;;21.10;99.90;;;;;;5067966;28;20290;-92
2022/10/19 12:36:35;;;;;;;4.63;1.70;;;21.10;99.90;;;;;;5074762;28;20199;-93
2022/10/19 12:39:19;;;;;;;5.22;1.60;;;21.10;99.90;;;;;;5108141;28;20236;-92
2022/10/19 12:41:59;;;;;;;4.82;1.55;;;21.10;99.90;;;;;;5071793;28;20192;-92
2022/10/19 12:45:03;;;;;;;7.78;1.60;;;21.10;99.90;;;;;;5063344;28;20688;-93
2022/10/19 12:47:35;;;;;;;6.28;1.60;;;21.00;99.90;;;;;;5067171;28;20247;-92
2022/10/19 12:50:07;;;;;;;5.18;1.75;;;21.00;99.90;;;;;;5095735;28;20561;-93
2022/10/19 12:52:47;;;;;;;8.18;1.90;;;21.00;99.90;;;;;;5095738;28;20736;-94
2022/10/19 12:55:38;;;;;;;5.95;1.52;;;21.00;99.90;;;;;;5082696;28;20253;-92
2022/10/19 12:58:22;;;;;;;6.47;1.60;;;21.00;99.90;;;;;;5075387;28;20215;-92
2022/10/19 13:01:04;;;;;;;4.78;1.65;;;21.00;99.90;;;;;;5075272;28;20200;-92
2022/10/19 13:03:39;;;;;;;6.63;1.70;;;21.00;99.90;;;;;;5075579;28;20299;-92
2022/10/19 13:06:15;;;;;;;10.55;2.03;;;21.00;99.90;;;;;;5075436;28;20208;-91
2022/10/19 13:08:51;;;;;;;4.20;1.48;;;21.00;99.90;;;;;;5082719;28;20217;-93
2022/10/19 13:11:25;;;;;;;7.55;1.77;;;21.00;99.90;;;;;;5075092;28;20601;-92
2022/10/19 13:14:05;;;;;;;6.45;1.50;;;20.90;99.90;;;;;;5069931;28;20207;-92
2022/10/19 13:17:01;;;;;;;3.90;1.40;;;21.00;99.90;;;;;;5058738;28;20208;-92
2022/10/19 13:19:34;;;;;;;7.47;1.85;;;21.00;99.90;;;;;;5067230;28;20192;-92
2022/10/19 13:22:29;;;;;;;7.85;1.80;;;21.00;99.90;;;;;;5079170;28;20644;-94
2022/10/19 13:25:36;;;;;;;5.85;1.70;;;21.00;99.90;;;;;;5081792;28;20239;-92
2022/10/19 13:28:53;;;;;;;5.80;1.55;;;21.00;99.90;;;;;;5071851;28;20215;-93
2022/10/19 13:31:31;;;;;;;3.35;1.45;;;21.00;99.90;;;;;;5074249;28;20268;-93
2022/10/19 13:34:03;;;;;;;6.85;2.03;;;21.00;99.90;;;;;;5079713;28;20282;-92